sensor_id;sensor_type;location;lat;lon;timestamp;P1;durP1;ratioP1;P2;durP2;ratioP2
37507;SDS011;23360;46.936;15.514;2023-09-19T00:02:03;36.03;;;9.73;;
37507;SDS011;23360;46.936;15.514;2023-09-19T00:04:34;26.00;;;9.20;;
37507;SDS011;23360;46.936;15.514;2023-09-19T00:07:01;24.15;;;8.32;;
37507;SDS011;23360;46.936;15.514;2023-09-19T00:09:29;22.05;;;9.27;;
37507;SDS011;23360;46.936;15.514;2023-09-19T00:11:56;21.45;;;8.43;;
37507;SDS011;23360;46.936;15.514;2023-09-19T00:14:24;32.40;;;9.30;;
37507;SDS011;23360;46.936;15.514;2023-09-19T00:16:51;22.85;;;8.65;;
37507;SDS011;23360;46.936;15.514;2023-09-19T00:19:17;25.90;;;9.05;;
37507;SDS011;23360;46.936;15.514;2023-09-19T00:21:44;28.88;;;9.75;;
37507;SDS011;23360;46.936;15.514;2023-09-19T00:24:12;28.85;;;9.60;;
37507;SDS011;23360;46.936;15.514;2023-09-19T00:26:41;22.52;;;8.88;;
37507;SDS011;23360;46.936;15.514;2023-09-19T00:29:08;28.52;;;8.98;;
37507;SDS011;23360;46.936;15.514;2023-09-19T00:31:34;23.73;;;9.30;;
37507;SDS011;23360;46.936;15.514;2023-09-19T00:34:01;21.05;;;8.95;;
37507;SDS011;23360;46.936;15.514;2023-09-19T00:36:32;30.25;;;9.10;;
37507;SDS011;23360;46.936;15.514;2023-09-19T00:39:00;27.67;;;9.35;;
37507;SDS011;23360;46.936;15.514;2023-09-19T00:41:26;22.90;;;8.65;;
37507;SDS011;23360;46.936;15.514;2023-09-19T00:43:56;21.20;;;8.27;;
37507;SDS011;23360;46.936;15.514;2023-09-19T00:46:22;25.35;;;10.23;;
37507;SDS011;23360;46.936;15.514;2023-09-19T00:48:49;19.95;;;9.82;;
37507;SDS011;23360;46.936;15.514;2023-09-19T00:51:16;23.58;;;10.68;;
37507;SDS011;23360;46.936;15.514;2023-09-19T00:53:46;24.33;;;10.68;;
37507;SDS011;23360;46.936;15.514;2023-09-19T00:56:13;29.20;;;11.10;;
37507;SDS011;23360;46.936;15.514;2023-09-19T00:58:45;34.00;;;11.27;;
37507;SDS011;23360;46.936;15.514;2023-09-19T01:01:15;27.02;;;12.38;;
37507;SDS011;23360;46.936;15.514;2023-09-19T01:03:43;20.73;;;11.15;;
37507;SDS011;23360;46.936;15.514;2023-09-19T01:06:11;22.20;;;11.88;;
37507;SDS011;23360;46.936;15.514;2023-09-19T01:08:38;27.50;;;11.75;;
37507;SDS011;23360;46.936;15.514;2023-09-19T01:11:21;27.42;;;11.40;;
37507;SDS011;23360;46.936;15.514;2023-09-19T01:14:08;21.20;;;10.77;;
37507;SDS011;23360;46.936;15.514;2023-09-19T01:22:36;24.98;;;8.10;;
37507;SDS011;23360;46.936;15.514;2023-09-19T01:27:49;21.85;;;7.45;;
37507;SDS011;23360;46.936;15.514;2023-09-19T01:30:20;26.48;;;8.95;;
37507;SDS011;23360;46.936;15.514;2023-09-19T01:32:51;20.33;;;6.65;;
37507;SDS011;23360;46.936;15.514;2023-09-19T01:35:18;19.70;;;6.63;;
37507;SDS011;23360;46.936;15.514;2023-09-19T01:37:45;32.47;;;7.70;;
37507;SDS011;23360;46.936;15.514;2023-09-19T01:40:13;15.23;;;7.38;;
37507;SDS011;23360;46.936;15.514;2023-09-19T01:45:20;17.85;;;7.28;;
37507;SDS011;23360;46.936;15.514;2023-09-19T01:47:52;25.45;;;6.22;;
37507;SDS011;23360;46.936;15.514;2023-09-19T01:50:29;17.00;;;6.70;;
37507;SDS011;23360;46.936;15.514;2023-09-19T01:52:59;15.63;;;5.53;;
37507;SDS011;23360;46.936;15.514;2023-09-19T01:55:32;15.60;;;5.53;;
37507;SDS011;23360;46.936;15.514;2023-09-19T01:58:04;22.17;;;6.47;;
37507;SDS011;23360;46.936;15.514;2023-09-19T02:00:32;21.00;;;6.72;;
37507;SDS011;23360;46.936;15.514;2023-09-19T02:03:00;22.83;;;6.95;;
37507;SDS011;23360;46.936;15.514;2023-09-19T02:05:27;19.45;;;6.43;;
37507;SDS011;23360;46.936;15.514;2023-09-19T02:07:54;16.05;;;5.43;;
37507;SDS011;23360;46.936;15.514;2023-09-19T02:10:22;21.73;;;6.72;;
37507;SDS011;23360;46.936;15.514;2023-09-19T02:12:49;11.63;;;6.15;;
37507;SDS011;23360;46.936;15.514;2023-09-19T02:15:16;16.70;;;6.20;;
37507;SDS011;23360;46.936;15.514;2023-09-19T02:17:43;22.60;;;6.72;;
37507;SDS011;23360;46.936;15.514;2023-09-19T02:20:10;22.73;;;6.32;;
37507;SDS011;23360;46.936;15.514;2023-09-19T02:22:41;21.23;;;7.70;;
37507;SDS011;23360;46.936;15.514;2023-09-19T02:25:08;31.00;;;8.98;;
37507;SDS011;23360;46.936;15.514;2023-09-19T02:27:35;24.70;;;9.63;;
37507;SDS011;23360;46.936;15.514;2023-09-19T02:30:02;23.13;;;9.45;;
37507;SDS011;23360;46.936;15.514;2023-09-19T02:32:29;24.92;;;10.10;;
37507;SDS011;23360;46.936;15.514;2023-09-19T02:34:57;20.33;;;10.13;;
37507;SDS011;23360;46.936;15.514;2023-09-19T02:37:27;20.40;;;9.63;;
37507;SDS011;23360;46.936;15.514;2023-09-19T02:39:54;18.85;;;10.13;;
37507;SDS011;23360;46.936;15.514;2023-09-19T02:42:20;22.38;;;11.23;;
37507;SDS011;23360;46.936;15.514;2023-09-19T02:44:47;33.97;;;12.85;;
37507;SDS011;23360;46.936;15.514;2023-09-19T02:47:14;25.23;;;11.93;;
37507;SDS011;23360;46.936;15.514;2023-09-19T02:49:41;24.77;;;11.02;;
37507;SDS011;23360;46.936;15.514;2023-09-19T02:52:09;25.90;;;12.57;;
37507;SDS011;23360;46.936;15.514;2023-09-19T02:54:37;32.70;;;12.23;;
37507;SDS011;23360;46.936;15.514;2023-09-19T02:57:03;22.80;;;10.75;;
37507;SDS011;23360;46.936;15.514;2023-09-19T02:59:32;37.58;;;12.20;;
37507;SDS011;23360;46.936;15.514;2023-09-19T03:01:58;27.38;;;10.98;;
37507;SDS011;23360;46.936;15.514;2023-09-19T03:04:26;30.50;;;10.38;;
37507;SDS011;23360;46.936;15.514;2023-09-19T03:06:53;26.88;;;9.93;;
37507;SDS011;23360;46.936;15.514;2023-09-19T03:09:24;25.17;;;11.55;;
37507;SDS011;23360;46.936;15.514;2023-09-19T03:11:51;21.65;;;10.05;;
37507;SDS011;23360;46.936;15.514;2023-09-19T03:14:17;21.45;;;9.40;;
37507;SDS011;23360;46.936;15.514;2023-09-19T03:16:46;26.42;;;9.30;;
37507;SDS011;23360;46.936;15.514;2023-09-19T03:19:12;20.42;;;8.45;;
37507;SDS011;23360;46.936;15.514;2023-09-19T03:21:41;26.02;;;9.77;;
37507;SDS011;23360;46.936;15.514;2023-09-19T03:24:08;26.17;;;9.15;;
37507;SDS011;23360;46.936;15.514;2023-09-19T03:26:34;21.85;;;10.38;;
37507;SDS011;23360;46.936;15.514;2023-09-19T03:29:03;27.13;;;9.93;;
37507;SDS011;23360;46.936;15.514;2023-09-19T03:31:32;33.80;;;10.50;;
37507;SDS011;23360;46.936;15.514;2023-09-19T03:33:59;36.38;;;9.93;;
37507;SDS011;23360;46.936;15.514;2023-09-19T03:36:25;27.42;;;9.50;;
37507;SDS011;23360;46.936;15.514;2023-09-19T03:38:54;17.88;;;9.65;;
37507;SDS011;23360;46.936;15.514;2023-09-19T03:41:20;23.92;;;9.98;;
37507;SDS011;23360;46.936;15.514;2023-09-19T03:43:48;21.05;;;8.95;;
37507;SDS011;23360;46.936;15.514;2023-09-19T03:46:15;33.10;;;8.82;;
37507;SDS011;23360;46.936;15.514;2023-09-19T03:48:42;22.98;;;8.75;;
37507;SDS011;23360;46.936;15.514;2023-09-19T03:51:09;22.50;;;8.07;;
37507;SDS011;23360;46.936;15.514;2023-09-19T03:53:36;20.10;;;7.03;;
37507;SDS011;23360;46.936;15.514;2023-09-19T03:56:02;16.85;;;7.95;;
37507;SDS011;23360;46.936;15.514;2023-09-19T03:58:29;19.13;;;6.85;;
37507;SDS011;23360;46.936;15.514;2023-09-19T04:00:56;21.30;;;6.60;;
37507;SDS011;23360;46.936;15.514;2023-09-19T04:03:23;14.38;;;5.15;;
37507;SDS011;23360;46.936;15.514;2023-09-19T04:05:50;8.77;;;4.30;;
37507;SDS011;23360;46.936;15.514;2023-09-19T04:08:16;15.70;;;5.18;;
37507;SDS011;23360;46.936;15.514;2023-09-19T04:10:43;15.40;;;4.72;;
37507;SDS011;23360;46.936;15.514;2023-09-19T04:13:10;13.57;;;4.60;;
37507;SDS011;23360;46.936;15.514;2023-09-19T04:15:37;19.38;;;4.63;;
37507;SDS011;23360;46.936;15.514;2023-09-19T04:18:03;12.77;;;4.72;;
37507;SDS011;23360;46.936;15.514;2023-09-19T04:20:30;13.50;;;4.35;;
37507;SDS011;23360;46.936;15.514;2023-09-19T04:22:58;20.63;;;3.75;;
37507;SDS011;23360;46.936;15.514;2023-09-19T04:25:26;8.93;;;3.90;;
37507;SDS011;23360;46.936;15.514;2023-09-19T04:27:54;14.30;;;3.90;;
37507;SDS011;23360;46.936;15.514;2023-09-19T04:30:21;13.80;;;3.35;;
37507;SDS011;23360;46.936;15.514;2023-09-19T04:32:47;15.65;;;2.53;;
37507;SDS011;23360;46.936;15.514;2023-09-19T04:35:17;7.78;;;2.90;;
37507;SDS011;23360;46.936;15.514;2023-09-19T04:37:44;11.50;;;3.30;;
37507;SDS011;23360;46.936;15.514;2023-09-19T04:40:11;9.95;;;2.65;;
37507;SDS011;23360;46.936;15.514;2023-09-19T04:42:44;8.40;;;2.67;;
37507;SDS011;23360;46.936;15.514;2023-09-19T04:45:10;6.75;;;2.28;;
37507;SDS011;23360;46.936;15.514;2023-09-19T04:47:37;11.07;;;2.15;;
37507;SDS011;23360;46.936;15.514;2023-09-19T04:50:08;5.38;;;2.15;;
37507;SDS011;23360;46.936;15.514;2023-09-19T04:52:41;8.07;;;2.35;;
37507;SDS011;23360;46.936;15.514;2023-09-19T04:55:09;9.30;;;1.92;;
37507;SDS011;23360;46.936;15.514;2023-09-19T04:57:37;7.10;;;2.10;;
37507;SDS011;23360;46.936;15.514;2023-09-19T05:00:03;7.60;;;2.33;;
37507;SDS011;23360;46.936;15.514;2023-09-19T05:02:38;11.45;;;2.30;;
37507;SDS011;23360;46.936;15.514;2023-09-19T05:05:06;7.90;;;2.40;;
37507;SDS011;23360;46.936;15.514;2023-09-19T05:07:33;9.75;;;3.08;;
37507;SDS011;23360;46.936;15.514;2023-09-19T05:10:00;10.82;;;2.90;;
37507;SDS011;23360;46.936;15.514;2023-09-19T05:12:27;9.95;;;2.85;;
37507;SDS011;23360;46.936;15.514;2023-09-19T05:14:53;12.20;;;3.20;;
37507;SDS011;23360;46.936;15.514;2023-09-19T05:17:20;14.48;;;4.97;;
37507;SDS011;23360;46.936;15.514;2023-09-19T05:19:46;12.82;;;3.78;;
37507;SDS011;23360;46.936;15.514;2023-09-19T05:22:13;12.95;;;3.78;;
37507;SDS011;23360;46.936;15.514;2023-09-19T05:24:40;7.85;;;3.42;;
37507;SDS011;23360;46.936;15.514;2023-09-19T05:27:06;14.10;;;3.85;;
37507;SDS011;23360;46.936;15.514;2023-09-19T05:29:33;8.98;;;3.67;;
37507;SDS011;23360;46.936;15.514;2023-09-19T05:31:59;17.23;;;3.97;;
37507;SDS011;23360;46.936;15.514;2023-09-19T05:34:26;11.55;;;4.50;;
37507;SDS011;23360;46.936;15.514;2023-09-19T05:36:56;15.35;;;3.75;;
37507;SDS011;23360;46.936;15.514;2023-09-19T05:39:22;7.75;;;3.38;;
37507;SDS011;23360;46.936;15.514;2023-09-19T05:41:49;14.93;;;3.63;;
37507;SDS011;23360;46.936;15.514;2023-09-19T05:44:15;8.57;;;3.22;;
37507;SDS011;23360;46.936;15.514;2023-09-19T05:46:42;10.40;;;4.10;;
37507;SDS011;23360;46.936;15.514;2023-09-19T05:49:08;8.45;;;3.53;;
37507;SDS011;23360;46.936;15.514;2023-09-19T05:51:35;11.43;;;3.72;;
37507;SDS011;23360;46.936;15.514;2023-09-19T05:54:01;13.70;;;4.53;;
37507;SDS011;23360;46.936;15.514;2023-09-19T05:56:28;9.95;;;3.40;;
37507;SDS011;23360;46.936;15.514;2023-09-19T05:58:54;14.95;;;4.05;;
37507;SDS011;23360;46.936;15.514;2023-09-19T06:01:21;17.70;;;3.97;;
37507;SDS011;23360;46.936;15.514;2023-09-19T06:03:48;8.07;;;3.10;;
37507;SDS011;23360;46.936;15.514;2023-09-19T06:06:15;10.85;;;3.13;;
37507;SDS011;23360;46.936;15.514;2023-09-19T06:08:41;10.90;;;3.42;;
37507;SDS011;23360;46.936;15.514;2023-09-19T06:11:11;9.40;;;3.55;;
37507;SDS011;23360;46.936;15.514;2023-09-19T06:13:38;10.75;;;2.85;;
37507;SDS011;23360;46.936;15.514;2023-09-19T06:16:05;10.15;;;2.92;;
37507;SDS011;23360;46.936;15.514;2023-09-19T06:18:32;7.30;;;2.90;;
37507;SDS011;23360;46.936;15.514;2023-09-19T06:21:00;9.82;;;2.35;;
37507;SDS011;23360;46.936;15.514;2023-09-19T06:23:26;7.07;;;2.30;;
37507;SDS011;23360;46.936;15.514;2023-09-19T06:25:55;9.07;;;2.00;;
37507;SDS011;23360;46.936;15.514;2023-09-19T06:28:22;12.10;;;3.00;;
37507;SDS011;23360;46.936;15.514;2023-09-19T06:30:52;7.82;;;2.40;;
37507;SDS011;23360;46.936;15.514;2023-09-19T06:33:18;8.23;;;2.53;;
37507;SDS011;23360;46.936;15.514;2023-09-19T06:35:47;9.68;;;3.05;;
37507;SDS011;23360;46.936;15.514;2023-09-19T06:38:14;10.15;;;2.33;;
37507;SDS011;23360;46.936;15.514;2023-09-19T06:40:42;8.63;;;2.80;;
37507;SDS011;23360;46.936;15.514;2023-09-19T06:43:11;12.50;;;2.78;;
37507;SDS011;23360;46.936;15.514;2023-09-19T06:45:38;12.52;;;3.00;;
37507;SDS011;23360;46.936;15.514;2023-09-19T06:48:05;7.30;;;2.75;;
37507;SDS011;23360;46.936;15.514;2023-09-19T06:50:32;13.63;;;2.72;;
37507;SDS011;23360;46.936;15.514;2023-09-19T06:53:00;14.25;;;2.90;;
37507;SDS011;23360;46.936;15.514;2023-09-19T06:55:28;9.18;;;2.92;;
37507;SDS011;23360;46.936;15.514;2023-09-19T06:57:58;11.40;;;3.15;;
37507;SDS011;23360;46.936;15.514;2023-09-19T07:00:25;10.55;;;4.07;;
37507;SDS011;23360;46.936;15.514;2023-09-19T07:02:58;11.65;;;3.40;;
37507;SDS011;23360;46.936;15.514;2023-09-19T07:05:27;14.40;;;3.95;;
37507;SDS011;23360;46.936;15.514;2023-09-19T07:07:54;13.15;;;3.78;;
37507;SDS011;23360;46.936;15.514;2023-09-19T07:10:30;19.20;;;3.55;;
37507;SDS011;23360;46.936;15.514;2023-09-19T07:13:03;10.13;;;3.55;;
37507;SDS011;23360;46.936;15.514;2023-09-19T07:15:32;15.27;;;3.67;;
37507;SDS011;23360;46.936;15.514;2023-09-19T07:18:02;16.05;;;3.33;;
37507;SDS011;23360;46.936;15.514;2023-09-19T07:20:28;8.50;;;3.47;;
37507;SDS011;23360;46.936;15.514;2023-09-19T07:22:58;8.82;;;3.50;;
37507;SDS011;23360;46.936;15.514;2023-09-19T07:25:28;9.77;;;3.53;;
37507;SDS011;23360;46.936;15.514;2023-09-19T07:27:55;11.15;;;3.58;;
37507;SDS011;23360;46.936;15.514;2023-09-19T07:30:22;11.73;;;3.92;;
37507;SDS011;23360;46.936;15.514;2023-09-19T07:32:49;15.30;;;3.47;;
37507;SDS011;23360;46.936;15.514;2023-09-19T07:35:16;9.57;;;3.70;;
37507;SDS011;23360;46.936;15.514;2023-09-19T07:37:42;10.27;;;3.28;;
37507;SDS011;23360;46.936;15.514;2023-09-19T07:40:09;11.10;;;3.30;;
37507;SDS011;23360;46.936;15.514;2023-09-19T07:42:36;13.63;;;3.78;;
37507;SDS011;23360;46.936;15.514;2023-09-19T07:45:10;9.43;;;3.55;;
37507;SDS011;23360;46.936;15.514;2023-09-19T07:47:43;14.93;;;3.60;;
37507;SDS011;23360;46.936;15.514;2023-09-19T07:50:10;8.32;;;2.55;;
37507;SDS011;23360;46.936;15.514;2023-09-19T07:52:37;8.10;;;2.40;;
37507;SDS011;23360;46.936;15.514;2023-09-19T07:55:06;8.30;;;2.40;;
37507;SDS011;23360;46.936;15.514;2023-09-19T07:57:36;7.82;;;2.60;;
37507;SDS011;23360;46.936;15.514;2023-09-19T08:00:04;10.40;;;1.95;;
37507;SDS011;23360;46.936;15.514;2023-09-19T08:02:35;6.70;;;2.17;;
37507;SDS011;23360;46.936;15.514;2023-09-19T08:05:06;9.88;;;2.05;;
37507;SDS011;23360;46.936;15.514;2023-09-19T08:07:37;9.25;;;2.45;;
37507;SDS011;23360;46.936;15.514;2023-09-19T08:10:04;10.77;;;2.38;;
37507;SDS011;23360;46.936;15.514;2023-09-19T08:12:31;8.50;;;2.35;;
37507;SDS011;23360;46.936;15.514;2023-09-19T08:14:57;10.23;;;2.20;;
37507;SDS011;23360;46.936;15.514;2023-09-19T08:17:23;4.72;;;1.83;;
37507;SDS011;23360;46.936;15.514;2023-09-19T08:19:50;4.93;;;2.15;;
37507;SDS011;23360;46.936;15.514;2023-09-19T08:22:19;11.60;;;1.95;;
37507;SDS011;23360;46.936;15.514;2023-09-19T08:24:46;5.60;;;2.30;;
37507;SDS011;23360;46.936;15.514;2023-09-19T08:27:14;14.82;;;2.25;;
37507;SDS011;23360;46.936;15.514;2023-09-19T08:29:46;8.18;;;3.08;;
37507;SDS011;23360;46.936;15.514;2023-09-19T08:32:13;8.43;;;2.60;;
37507;SDS011;23360;46.936;15.514;2023-09-19T08:34:40;9.10;;;2.50;;
37507;SDS011;23360;46.936;15.514;2023-09-19T08:37:07;7.72;;;2.65;;
37507;SDS011;23360;46.936;15.514;2023-09-19T08:39:34;17.40;;;2.97;;
37507;SDS011;23360;46.936;15.514;2023-09-19T08:42:03;15.18;;;2.45;;
37507;SDS011;23360;46.936;15.514;2023-09-19T08:44:30;8.13;;;3.17;;
37507;SDS011;23360;46.936;15.514;2023-09-19T08:47:09;8.13;;;1.75;;
37507;SDS011;23360;46.936;15.514;2023-09-19T08:49:53;5.68;;;1.90;;
37507;SDS011;23360;46.936;15.514;2023-09-19T08:52:28;6.55;;;2.20;;
37507;SDS011;23360;46.936;15.514;2023-09-19T08:54:57;8.65;;;1.95;;
37507;SDS011;23360;46.936;15.514;2023-09-19T08:57:25;7.72;;;2.33;;
37507;SDS011;23360;46.936;15.514;2023-09-19T08:59:56;6.80;;;1.83;;
37507;SDS011;23360;46.936;15.514;2023-09-19T09:02:23;6.68;;;2.08;;
37507;SDS011;23360;46.936;15.514;2023-09-19T09:04:50;19.65;;;2.05;;
37507;SDS011;23360;46.936;15.514;2023-09-19T09:07:17;8.43;;;1.73;;
37507;SDS011;23360;46.936;15.514;2023-09-19T09:09:45;4.25;;;1.58;;
37507;SDS011;23360;46.936;15.514;2023-09-19T09:12:12;10.45;;;1.70;;
37507;SDS011;23360;46.936;15.514;2023-09-19T09:14:39;5.65;;;1.25;;
37507;SDS011;23360;46.936;15.514;2023-09-19T09:17:06;8.48;;;1.77;;
37507;SDS011;23360;46.936;15.514;2023-09-19T09:19:33;4.32;;;1.20;;
37507;SDS011;23360;46.936;15.514;2023-09-19T09:22:07;11.25;;;1.40;;
37507;SDS011;23360;46.936;15.514;2023-09-19T09:24:34;2.75;;;1.10;;
37507;SDS011;23360;46.936;15.514;2023-09-19T09:27:06;4.55;;;1.10;;
37507;SDS011;23360;46.936;15.514;2023-09-19T09:29:46;5.47;;;1.42;;
37507;SDS011;23360;46.936;15.514;2023-09-19T09:32:19;5.40;;;0.95;;
37507;SDS011;23360;46.936;15.514;2023-09-19T09:34:47;4.40;;;1.20;;
37507;SDS011;23360;46.936;15.514;2023-09-19T09:37:15;6.90;;;1.35;;
37507;SDS011;23360;46.936;15.514;2023-09-19T09:39:50;9.05;;;1.50;;
37507;SDS011;23360;46.936;15.514;2023-09-19T09:42:33;4.75;;;1.23;;
37507;SDS011;23360;46.936;15.514;2023-09-19T09:47:44;3.72;;;1.33;;
37507;SDS011;23360;46.936;15.514;2023-09-19T09:50:24;9.65;;;1.35;;
37507;SDS011;23360;46.936;15.514;2023-09-19T09:52:56;8.98;;;1.17;;
37507;SDS011;23360;46.936;15.514;2023-09-19T09:58:21;6.43;;;1.20;;
37507;SDS011;23360;46.936;15.514;2023-09-19T10:00:53;9.18;;;1.10;;
37507;SDS011;23360;46.936;15.514;2023-09-19T10:03:36;4.10;;;0.82;;
37507;SDS011;23360;46.936;15.514;2023-09-19T10:08:57;3.10;;;0.80;;
37507;SDS011;23360;46.936;15.514;2023-09-19T10:11:29;3.17;;;0.90;;
37507;SDS011;23360;46.936;15.514;2023-09-19T10:13:57;4.10;;;1.00;;
37507;SDS011;23360;46.936;15.514;2023-09-19T10:16:29;8.48;;;0.90;;
37507;SDS011;23360;46.936;15.514;2023-09-19T10:18:58;3.30;;;1.10;;
37507;SDS011;23360;46.936;15.514;2023-09-19T10:21:26;2.90;;;0.82;;
37507;SDS011;23360;46.936;15.514;2023-09-19T10:23:59;4.30;;;0.80;;
37507;SDS011;23360;46.936;15.514;2023-09-19T10:26:27;4.60;;;0.98;;
37507;SDS011;23360;46.936;15.514;2023-09-19T10:28:57;2.70;;;1.00;;
37507;SDS011;23360;46.936;15.514;2023-09-19T10:31:27;4.90;;;1.38;;
37507;SDS011;23360;46.936;15.514;2023-09-19T10:33:55;3.35;;;0.90;;
37507;SDS011;23360;46.936;15.514;2023-09-19T10:36:25;4.88;;;0.80;;
37507;SDS011;23360;46.936;15.514;2023-09-19T10:38:52;2.85;;;0.60;;
37507;SDS011;23360;46.936;15.514;2023-09-19T10:41:21;11.05;;;1.20;;
37507;SDS011;23360;46.936;15.514;2023-09-19T10:43:48;2.47;;;0.90;;
37507;SDS011;23360;46.936;15.514;2023-09-19T10:46:15;7.75;;;0.95;;
37507;SDS011;23360;46.936;15.514;2023-09-19T10:48:42;3.38;;;1.02;;
37507;SDS011;23360;46.936;15.514;2023-09-19T10:53:47;3.38;;;1.20;;
37507;SDS011;23360;46.936;15.514;2023-09-19T10:56:16;5.22;;;1.20;;
37507;SDS011;23360;46.936;15.514;2023-09-19T10:58:44;2.70;;;1.05;;
37507;SDS011;23360;46.936;15.514;2023-09-19T11:01:12;4.05;;;1.17;;
37507;SDS011;23360;46.936;15.514;2023-09-19T11:03:39;6.75;;;1.40;;
37507;SDS011;23360;46.936;15.514;2023-09-19T11:08:58;3.42;;;1.02;;
37507;SDS011;23360;46.936;15.514;2023-09-19T11:17:21;2.30;;;0.88;;
37507;SDS011;23360;46.936;15.514;2023-09-19T11:20:14;5.55;;;0.98;;
37507;SDS011;23360;46.936;15.514;2023-09-19T11:22:14;6.72;;;0.95;;
37507;SDS011;23360;46.936;15.514;2023-09-19T11:24:41;2.88;;;1.00;;
37507;SDS011;23360;46.936;15.514;2023-09-19T11:27:12;3.97;;;0.77;;
37507;SDS011;23360;46.936;15.514;2023-09-19T11:29:40;2.93;;;1.00;;
37507;SDS011;23360;46.936;15.514;2023-09-19T11:32:06;4.85;;;1.10;;
37507;SDS011;23360;46.936;15.514;2023-09-19T11:37:59;4.97;;;1.05;;
37507;SDS011;23360;46.936;15.514;2023-09-19T11:42:42;6.57;;;1.20;;
37507;SDS011;23360;46.936;15.514;2023-09-19T11:47:56;2.45;;;1.05;;
37507;SDS011;23360;46.936;15.514;2023-09-19T11:50:24;9.05;;;1.02;;
37507;SDS011;23360;46.936;15.514;2023-09-19T11:52:51;2.45;;;0.68;;
37507;SDS011;23360;46.936;15.514;2023-09-19T11:55:18;6.13;;;0.90;;
37507;SDS011;23360;46.936;15.514;2023-09-19T11:57:50;3.42;;;0.88;;
37507;SDS011;23360;46.936;15.514;2023-09-19T12:00:17;5.25;;;1.20;;
37507;SDS011;23360;46.936;15.514;2023-09-19T12:02:46;3.83;;;0.98;;
37507;SDS011;23360;46.936;15.514;2023-09-19T12:05:13;3.70;;;1.20;;
37507;SDS011;23360;46.936;15.514;2023-09-19T12:07:42;6.75;;;1.13;;
37507;SDS011;23360;46.936;15.514;2023-09-19T12:10:08;5.75;;;1.35;;
37507;SDS011;23360;46.936;15.514;2023-09-19T12:12:37;6.43;;;1.05;;
37507;SDS011;23360;46.936;15.514;2023-09-19T12:15:04;4.90;;;1.30;;
37507;SDS011;23360;46.936;15.514;2023-09-19T12:17:38;7.95;;;1.30;;
37507;SDS011;23360;46.936;15.514;2023-09-19T12:20:09;6.80;;;1.30;;
37507;SDS011;23360;46.936;15.514;2023-09-19T12:22:43;7.28;;;1.38;;
37507;SDS011;23360;46.936;15.514;2023-09-19T12:25:10;4.35;;;1.10;;
37507;SDS011;23360;46.936;15.514;2023-09-19T12:27:44;4.53;;;1.40;;
37507;SDS011;23360;46.936;15.514;2023-09-19T12:30:16;5.43;;;1.00;;
37507;SDS011;23360;46.936;15.514;2023-09-19T12:32:53;6.28;;;1.13;;
37507;SDS011;23360;46.936;15.514;2023-09-19T12:35:30;4.32;;;1.38;;
37507;SDS011;23360;46.936;15.514;2023-09-19T12:37:57;4.65;;;1.10;;
37507;SDS011;23360;46.936;15.514;2023-09-19T12:40:23;6.65;;;1.40;;
37507;SDS011;23360;46.936;15.514;2023-09-19T12:42:56;5.35;;;1.20;;
37507;SDS011;23360;46.936;15.514;2023-09-19T12:45:25;6.15;;;1.40;;
37507;SDS011;23360;46.936;15.514;2023-09-19T12:50:58;6.40;;;1.20;;
37507;SDS011;23360;46.936;15.514;2023-09-19T12:53:24;6.55;;;1.38;;
37507;SDS011;23360;46.936;15.514;2023-09-19T12:55:57;9.23;;;1.20;;
37507;SDS011;23360;46.936;15.514;2023-09-19T12:58:24;3.70;;;1.63;;
37507;SDS011;23360;46.936;15.514;2023-09-19T13:00:51;6.70;;;1.42;;
37507;SDS011;23360;46.936;15.514;2023-09-19T13:03:18;2.33;;;0.80;;
37507;SDS011;23360;46.936;15.514;2023-09-19T13:05:50;4.90;;;1.17;;
37507;SDS011;23360;46.936;15.514;2023-09-19T13:08:21;4.57;;;1.05;;
37507;SDS011;23360;46.936;15.514;2023-09-19T13:11:07;3.50;;;1.00;;
37507;SDS011;23360;46.936;15.514;2023-09-19T13:13:45;8.32;;;1.17;;
37507;SDS011;23360;46.936;15.514;2023-09-19T13:16:16;4.53;;;1.45;;
37507;SDS011;23360;46.936;15.514;2023-09-19T13:18:49;3.20;;;1.00;;
37507;SDS011;23360;46.936;15.514;2023-09-19T13:21:30;6.72;;;1.88;;
37507;SDS011;23360;46.936;15.514;2023-09-19T13:24:19;4.82;;;1.20;;
37507;SDS011;23360;46.936;15.514;2023-09-19T13:26:46;4.72;;;0.80;;
37507;SDS011;23360;46.936;15.514;2023-09-19T13:29:13;2.40;;;0.90;;
37507;SDS011;23360;46.936;15.514;2023-09-19T13:31:50;4.07;;;0.95;;
37507;SDS011;23360;46.936;15.514;2023-09-19T13:34:17;4.20;;;1.20;;
37507;SDS011;23360;46.936;15.514;2023-09-19T13:36:46;2.80;;;0.90;;
37507;SDS011;23360;46.936;15.514;2023-09-19T13:39:16;5.28;;;2.25;;
37507;SDS011;23360;46.936;15.514;2023-09-19T13:41:47;3.47;;;0.90;;
37507;SDS011;23360;46.936;15.514;2023-09-19T13:44:14;5.57;;;1.20;;
37507;SDS011;23360;46.936;15.514;2023-09-19T13:46:40;5.85;;;0.93;;
37507;SDS011;23360;46.936;15.514;2023-09-19T13:49:12;3.53;;;1.10;;
37507;SDS011;23360;46.936;15.514;2023-09-19T13:51:38;3.80;;;1.05;;
37507;SDS011;23360;46.936;15.514;2023-09-19T13:54:06;8.68;;;1.05;;
37507;SDS011;23360;46.936;15.514;2023-09-19T13:56:33;5.43;;;0.80;;
37507;SDS011;23360;46.936;15.514;2023-09-19T13:58:59;4.90;;;1.00;;
37507;SDS011;23360;46.936;15.514;2023-09-19T14:01:26;5.68;;;1.23;;
37507;SDS011;23360;46.936;15.514;2023-09-19T14:03:53;4.40;;;0.73;;
37507;SDS011;23360;46.936;15.514;2023-09-19T14:06:22;5.32;;;0.85;;
37507;SDS011;23360;46.936;15.514;2023-09-19T14:08:48;3.53;;;1.10;;
37507;SDS011;23360;46.936;15.514;2023-09-19T14:11:16;4.72;;;1.10;;
37507;SDS011;23360;46.936;15.514;2023-09-19T14:13:43;9.27;;;1.10;;
37507;SDS011;23360;46.936;15.514;2023-09-19T14:16:15;6.38;;;0.98;;
37507;SDS011;23360;46.936;15.514;2023-09-19T14:18:44;2.20;;;0.82;;
37507;SDS011;23360;46.936;15.514;2023-09-19T14:21:12;5.60;;;1.38;;
37507;SDS011;23360;46.936;15.514;2023-09-19T14:23:38;7.85;;;1.02;;
37507;SDS011;23360;46.936;15.514;2023-09-19T14:26:05;11.38;;;1.10;;
37507;SDS011;23360;46.936;15.514;2023-09-19T14:28:32;2.85;;;1.02;;
37507;SDS011;23360;46.936;15.514;2023-09-19T14:31:03;2.90;;;0.98;;
37507;SDS011;23360;46.936;15.514;2023-09-19T14:33:30;3.33;;;1.10;;
37507;SDS011;23360;46.936;15.514;2023-09-19T14:35:57;5.40;;;1.27;;
37507;SDS011;23360;46.936;15.514;2023-09-19T14:38:27;5.10;;;1.27;;
37507;SDS011;23360;46.936;15.514;2023-09-19T14:41:01;9.82;;;0.95;;
37507;SDS011;23360;46.936;15.514;2023-09-19T14:43:28;4.78;;;1.08;;
37507;SDS011;23360;46.936;15.514;2023-09-19T14:45:56;3.95;;;1.27;;
37507;SDS011;23360;46.936;15.514;2023-09-19T14:48:23;5.97;;;1.10;;
37507;SDS011;23360;46.936;15.514;2023-09-19T14:50:52;9.43;;;1.10;;
37507;SDS011;23360;46.936;15.514;2023-09-19T14:53:18;7.63;;;1.38;;
37507;SDS011;23360;46.936;15.514;2023-09-19T14:55:46;2.58;;;1.00;;
37507;SDS011;23360;46.936;15.514;2023-09-19T14:58:14;3.78;;;1.30;;
37507;SDS011;23360;46.936;15.514;2023-09-19T15:00:40;3.28;;;1.08;;
37507;SDS011;23360;46.936;15.514;2023-09-19T15:03:07;3.60;;;1.08;;
37507;SDS011;23360;46.936;15.514;2023-09-19T15:05:34;3.92;;;1.20;;
37507;SDS011;23360;46.936;15.514;2023-09-19T15:08:00;4.45;;;1.08;;
37507;SDS011;23360;46.936;15.514;2023-09-19T15:10:29;5.95;;;1.50;;
37507;SDS011;23360;46.936;15.514;2023-09-19T15:12:56;4.18;;;1.13;;
37507;SDS011;23360;46.936;15.514;2023-09-19T15:15:23;4.68;;;0.80;;
37507;SDS011;23360;46.936;15.514;2023-09-19T15:17:50;7.35;;;1.35;;
37507;SDS011;23360;46.936;15.514;2023-09-19T15:20:17;4.40;;;1.40;;